Time;durP1;ratioP1;P1;durP2;ratioP2;P2;SDS_P1;SDS_P2;PMS_P1;PMS_P2;Temp;Humidity;BMP_temperature;BMP_pressure;BME280_temperature;BME280_humidity;BME280_pressure;Samples;Min_cycle;Max_cycle;Signal;HPM_P1;HPM_P2
2023/04/08 00:00:39;;;;;;;7.60;6.60;;;;;;;9.59;100.00;100168.16;109175;1256;72658;-71
2023/04/08 00:03:21;;;;;;;8.00;7.30;;;;;;;9.50;100.00;100170.97;109194;1256;60688;-68
2023/04/08 00:05:52;;;;;;;8.40;7.00;;;;;;;9.47;100.00;100167.40;109221;1256;58963;-70
2023/04/08 00:08:24;;;;;;;10.00;7.50;;;;;;;9.48;100.00;100163.77;109252;1255;74390;-70
2023/04/08 00:10:55;;;;;;;7.70;6.70;;;;;;;9.54;100.00;100166.71;109246;1255;65872;-70
2023/04/08 00:21:40;;;;;;;9.80;8.50;;;;;;;9.57;100.00;100163.13;102601;1290;600224;-69
2023/04/08 00:24:09;;;;;;;7.80;6.80;;;;;;;9.50;100.00;100156.83;104925;1267;63593;-70
2023/04/08 00:26:37;;;;;;;9.00;7.70;;;;;;;9.49;100.00;100157.35;104724;1267;61353;-70
2023/04/08 00:29:05;;;;;;;9.60;8.60;;;;;;;9.49;100.00;100154.46;104739;1267;72167;-78
2023/04/08 00:31:34;;;;;;;8.80;7.40;;;;;;;9.51;100.00;100152.02;104772;1267;68902;-73
2023/04/08 00:34:02;;;;;;;8.10;7.30;;;;;;;9.54;100.00;100157.70;105011;1267;73627;-79
2023/04/08 00:36:31;;;;;;;9.00;7.30;;;;;;;9.54;100.00;100156.83;104982;1268;61134;-81
2023/04/08 00:39:01;;;;;;;8.20;6.80;;;;;;;9.55;100.00;100154.06;106598;1264;59173;-82
2023/04/08 00:41:29;;;;;;;9.60;8.50;;;;;;;9.57;100.00;100150.84;105623;1264;71726;-81
2023/04/08 00:43:58;;;;;;;10.90;8.50;;;;;;;9.59;100.00;100151.42;105528;1267;68202;-79
2023/04/08 00:46:27;;;;;;;12.10;8.80;;;;;;;9.60;100.00;100149.71;105364;1264;74221;-80
2023/04/08 00:48:55;;;;;;;11.00;9.00;;;;;;;9.61;100.00;100148.14;105851;1260;61851;-81
2023/04/08 00:51:24;;;;;;;22.10;9.50;;;;;;;9.60;100.00;100146.24;106144;1260;61211;-80
2023/04/08 00:53:53;;;;;;;9.80;7.80;;;;;;;9.57;100.00;100143.54;106060;1259;73503;-81
2023/04/08 00:56:22;;;;;;;10.40;8.90;;;;;;;9.56;100.00;100144.09;106318;1263;67192;-82
2023/04/08 00:58:53;;;;;;;12.00;9.40;;;;;;;9.53;100.00;100144.15;105800;1263;73103;-81
2023/04/08 01:01:48;;;;;;;13.30;9.10;;;;;;;9.52;100.00;100142.14;105601;1264;61708;-80
2023/04/08 01:04:38;;;;;;;18.00;11.00;;;;;;;9.52;100.00;100142.05;105555;1263;61187;-79
2023/04/08 01:07:10;;;;;;;18.90;11.20;;;;;;;9.54;100.00;100139.59;105519;1260;72863;-80
2023/04/08 01:09:46;;;;;;;23.90;12.60;;;;;;;9.56;100.00;100139.79;105481;1266;67403;-76
2023/04/08 01:12:20;;;;;;;11.80;9.40;;;;;;;9.65;100.00;100143.27;105519;1264;73613;-77
2023/04/08 01:14:48;;;;;;;13.90;10.30;;;;;;;9.76;100.00;100139.13;105383;1260;62533;-81
2023/04/08 01:17:16;;;;;;;14.80;11.00;;;;;;;9.87;100.00;100138.64;105446;1260;60787;-80
2023/04/08 01:19:45;;;;;;;11.40;9.40;;;;;;;9.94;100.00;100142.36;105399;1260;73694;-78
2023/04/08 01:22:52;;;;;;;11.60;8.70;;;;;;;9.99;100.00;100141.27;105778;1257;68781;-79
2023/04/08 01:25:23;;;;;;;10.10;8.20;;;;;;;9.97;100.00;100144.67;105694;1263;72735;-78
2023/04/08 01:27:55;;;;;;;12.30;8.40;;;;;;;9.93;100.00;100147.00;105814;1258;63092;-79
2023/04/08 01:30:24;;;;;;;10.60;8.30;;;;;;;9.91;100.00;100147.01;105879;1260;59611;-79
2023/04/08 01:32:53;;;;;;;9.80;7.60;;;;;;;9.91;100.00;100149.61;105508;1257;73090;-78
2023/04/08 01:35:22;;;;;;;12.20;8.90;;;;;;;9.85;100.00;100147.20;105685;1260;68497;-77
2023/04/08 01:37:50;;;;;;;10.10;9.10;;;;;;;9.70;100.00;100149.48;105401;1263;71926;-82
2023/04/08 01:40:19;;;;;;;10.50;8.50;;;;;;;9.61;100.00;100147.92;105580;1258;61858;-79
2023/04/08 01:42:48;;;;;;;10.30;9.00;;;;;;;9.52;100.00;100149.27;105494;1256;60915;-81
2023/04/08 01:45:16;;;;;;;9.20;8.30;;;;;;;9.50;100.00;100149.06;106008;1256;72607;-77
2023/04/08 01:47:46;;;;;;;10.70;8.40;;;;;;;9.49;100.00;100152.69;106108;1254;69782;-78
2023/04/08 01:50:15;;;;;;;14.30;9.60;;;;;;;9.47;100.00;100149.68;106027;1252;72419;-79
2023/04/08 01:52:45;;;;;;;11.50;9.60;;;;;;;9.48;100.00;100149.27;106157;1253;61820;-79
2023/04/08 01:55:15;;;;;;;10.40;8.20;;;;;;;9.42;100.00;100144.89;106159;1255;59642;-79
2023/04/08 01:57:47;;;;;;;10.60;9.40;;;;;;;9.38;100.00;100145.05;106049;1257;72975;-79
2023/04/08 02:00:17;;;;;;;11.60;9.50;;;;;;;9.38;100.00;100142.16;106002;1254;69174;-78
2023/04/08 02:02:49;;;;;;;10.50;9.40;;;;;;;9.38;100.00;100144.25;105989;1257;73139;-76
2023/04/08 02:05:19;;;;;;;11.10;9.50;;;;;;;9.44;100.00;100143.96;106078;1254;61924;-77
2023/04/08 02:07:49;;;;;;;10.80;9.60;;;;;;;9.52;100.00;100147.05;105851;1254;60823;-77
2023/04/08 02:10:24;;;;;;;10.10;8.70;;;;;;;9.56;100.00;100149.79;106118;1253;74367;-77
2023/04/08 02:12:53;;;;;;;10.90;9.60;;;;;;;9.52;100.00;100151.67;106100;1254;68666;-78
2023/04/08 02:15:21;;;;;;;11.70;9.90;;;;;;;9.50;100.00;100154.42;106085;1257;73146;-78
2023/04/08 02:18:02;;;;;;;9.80;8.70;;;;;;;9.43;100.00;100150.74;105969;1254;61896;-79
2023/04/08 02:20:38;;;;;;;12.90;10.10;;;;;;;9.39;100.00;100149.75;106074;1253;61153;-78
2023/04/08 02:23:13;;;;;;;10.70;9.60;;;;;;;9.36;100.00;100145.85;105984;1256;73256;-77
2023/04/08 02:25:44;;;;;;;12.70;9.90;;;;;;;9.37;100.00;100147.83;106099;1257;67556;-79
2023/04/08 02:28:12;;;;;;;12.00;9.50;;;;;;;9.39;100.00;100145.40;106030;1254;73004;-79
2023/04/08 02:30:47;;;;;;;14.10;11.70;;;;;;;9.43;100.00;100141.42;106081;1254;62169;-78
2023/04/08 02:33:18;;;;;;;16.80;10.60;;;;;;;9.47;100.00;100137.96;106073;1252;62150;-78
2023/04/08 02:35:47;;;;;;;11.00;9.60;;;;;;;9.52;100.00;100136.70;106049;1253;72937;-78
2023/04/08 02:38:28;;;;;;;12.20;9.70;;;;;;;9.50;100.00;100139.60;105936;1254;69897;-78
2023/04/08 02:40:57;;;;;;;16.40;10.90;;;;;;;9.47;100.00;100144.41;105739;1257;72791;-78
2023/04/08 02:43:30;;;;;;;11.00;9.90;;;;;;;9.43;100.00;100143.36;105851;1254;61784;-79
2023/04/08 02:46:02;;;;;;;11.90;9.30;;;;;;;9.39;100.00;100143.95;105972;1253;61574;-78
2023/04/08 02:48:31;;;;;;;14.20;10.20;;;;;;;9.40;100.00;100142.70;105883;1254;72598;-78
2023/04/08 02:50:59;;;;;;;11.70;9.00;;;;;;;9.43;100.00;100148.52;105894;1254;68776;-78
2023/04/08 02:53:28;;;;;;;10.50;9.10;;;;;;;9.43;100.00;100154.52;106086;1254;74483;-79
2023/04/08 02:55:56;;;;;;;14.90;10.20;;;;;;;9.42;100.00;100154.44;106062;1254;63804;-78
2023/04/08 02:58:24;;;;;;;15.60;10.70;;;;;;;9.44;100.00;100155.02;106120;1252;59540;-77
2023/04/08 03:00:54;;;;;;;13.30;10.20;;;;;;;9.48;100.00;100156.00;105971;1254;73169;-77
2023/04/08 03:03:28;;;;;;;12.80;10.70;;;;;;;9.44;100.00;100152.13;106002;1253;69823;-76
2023/04/08 03:05:58;;;;;;;10.40;9.40;;;;;;;9.42;100.00;100155.55;106060;1256;72970;-76
2023/04/08 03:08:26;;;;;;;13.10;9.60;;;;;;;9.40;100.00;100157.08;106055;1253;61680;-77
2023/04/08 03:10:55;;;;;;;11.50;9.60;;;;;;;9.41;100.00;100153.39;106115;1253;60389;-79
2023/04/08 03:13:24;;;;;;;11.50;9.70;;;;;;;9.43;100.00;100158.23;106082;1256;73257;-78
2023/04/08 03:15:52;;;;;;;13.90;9.80;;;;;;;9.45;100.00;100164.06;106187;1254;69565;-79
2023/04/08 03:18:20;;;;;;;15.50;11.50;;;;;;;9.45;100.00;100160.30;106023;1257;73468;-79
2023/04/08 03:20:49;;;;;;;13.30;10.60;;;;;;;9.46;100.00;100159.58;105771;1254;60867;-80
2023/04/08 03:23:17;;;;;;;12.00;10.30;;;;;;;9.45;100.00;100162.45;106065;1254;62250;-81
2023/04/08 03:25:46;;;;;;;16.40;9.70;;;;;;;9.41;100.00;100160.68;105970;1256;74736;-81
2023/04/08 03:28:14;;;;;;;12.30;10.60;;;;;;;9.38;100.00;100161.44;106052;1256;67284;-80
2023/04/08 03:30:43;;;;;;;13.80;10.60;;;;;;;9.38;100.00;100157.40;105992;1254;73530;-80
2023/04/08 03:33:12;;;;;;;15.90;10.90;;;;;;;9.46;100.00;100157.27;105905;1259;63427;-80
2023/04/08 03:35:40;;;;;;;14.70;10.30;;;;;;;9.57;100.00;100155.98;105826;1253;60045;-79
2023/04/08 03:38:08;;;;;;;19.20;11.30;;;;;;;9.63;100.00;100156.57;105902;1254;72925;-79
2023/04/08 03:40:36;;;;;;;15.60;12.00;;;;;;;9.66;100.00;100159.63;105891;1256;68143;-76
2023/04/08 03:43:07;;;;;;;15.90;11.90;;;;;;;9.67;100.00;100160.20;106333;1254;72371;-82
2023/04/08 03:45:35;;;;;;;14.80;10.80;;;;;;;9.70;100.00;100161.55;105901;1254;59675;-84
2023/04/08 03:48:05;;;;;;;12.20;9.70;;;;;;;9.60;100.00;100167.07;106052;1253;61823;-84
2023/04/08 03:50:33;;;;;;;11.70;10.30;;;;;;;9.48;100.00;100167.80;106166;1256;73543;-74
2023/04/08 03:53:04;;;;;;;18.50;10.20;;;;;;;9.41;100.00;100169.00;106217;1254;69745;-73
2023/04/08 03:55:33;;;;;;;15.30;10.40;;;;;;;9.34;100.00;100169.52;106184;1254;74606;-77
2023/04/08 03:58:06;;;;;;;15.30;10.70;;;;;;;9.34;100.00;100172.61;105933;1254;60515;-78
2023/04/08 04:00:35;;;;;;;12.60;10.70;;;;;;;9.30;100.00;100173.75;105922;1253;60124;-78
2023/04/08 04:03:11;;;;;;;10.90;8.90;;;;;;;9.29;100.00;100173.44;105875;1256;74661;-82
2023/04/08 04:05:41;;;;;;;12.10;9.10;;;;;;;9.33;100.00;100171.43;106066;1254;67963;-80
2023/04/08 04:08:09;;;;;;;16.10;9.60;;;;;;;9.37;100.00;100176.58;106187;1254;72577;-78
2023/04/08 04:10:38;;;;;;;12.80;9.80;;;;;;;9.37;100.00;100174.30;105961;1254;62268;-80
2023/04/08 04:13:06;;;;;;;14.60;9.90;;;;;;;9.35;100.00;100174.92;106144;1252;60512;-80
2023/04/08 04:15:38;;;;;;;10.70;9.60;;;;;;;9.35;100.00;100176.22;106010;1256;73606;-80
2023/04/08 04:18:07;;;;;;;17.60;10.20;;;;;;;9.34;100.00;100176.59;105985;1254;69704;-78
2023/04/08 04:20:40;;;;;;;15.90;10.60;;;;;;;9.35;100.00;100178.00;105976;1254;74567;-80
2023/04/08 04:23:09;;;;;;;13.90;10.10;;;;;;;9.40;100.00;100180.79;106027;1252;63013;-76
2023/04/08 04:25:40;;;;;;;14.40;10.10;;;;;;;9.44;100.00;100185.30;106038;1254;61766;-76
2023/04/08 04:28:16;;;;;;;15.20;8.20;;;;;;;9.46;100.00;100189.92;105903;1260;74822;-77
2023/04/08 04:30:47;;;;;;;12.40;10.60;;;;;;;9.48;100.00;100189.17;106047;1254;68784;-76
2023/04/08 04:33:15;;;;;;;11.60;9.20;;;;;;;9.51;100.00;100192.96;106095;1254;72341;-80
2023/04/08 04:35:45;;;;;;;16.40;12.50;;;;;;;9.55;100.00;100193.05;105563;1254;61152;-77
2023/04/08 04:38:15;;;;;;;19.60;12.80;;;;;;;9.54;100.00;100197.86;105929;1256;60421;-79
2023/04/08 04:40:46;;;;;;;19.90;13.70;;;;;;;9.52;100.00;100198.23;105799;1257;74627;-79
2023/04/08 04:43:16;;;;;;;20.70;13.60;;;;;;;9.53;100.00;100195.79;105841;1254;69703;-80
2023/04/08 04:45:46;;;;;;;14.20;11.90;;;;;;;9.58;100.00;100197.52;105787;1254;74664;-77
2023/04/08 04:48:16;;;;;;;19.90;13.30;;;;;;;9.60;100.00;100200.11;105830;1254;62403;-76
2023/04/08 04:50:44;;;;;;;15.90;10.80;;;;;;;9.63;100.00;100205.08;106044;1254;61060;-78
2023/04/08 04:53:17;;;;;;;14.50;10.60;;;;;;;9.70;100.00;100208.23;105844;1257;74620;-79
2023/04/08 04:55:47;;;;;;;17.40;10.10;;;;;;;9.75;100.00;100214.15;105984;1254;69260;-78
2023/04/08 04:58:16;;;;;;;14.20;9.80;;;;;;;9.77;100.00;100214.50;106002;1255;73112;-79
2023/04/08 05:00:45;;;;;;;14.20;10.10;;;;;;;9.77;100.00;100217.51;105998;1253;62186;-81
2023/04/08 05:03:15;;;;;;;18.00;9.70;;;;;;;9.79;100.00;100217.50;106033;1253;61231;-81
2023/04/08 05:05:52;;;;;;;16.50;9.40;;;;;;;9.83;100.00;100220.66;106184;1254;73154;-82
2023/04/08 05:08:20;;;;;;;14.10;10.10;;;;;;;9.89;100.00;100221.55;106316;1253;70076;-84
2023/04/08 05:10:49;;;;;;;18.00;9.30;;;;;;;9.95;100.00;100226.21;105996;1254;74580;-83
2023/04/08 05:13:24;;;;;;;15.10;9.80;;;;;;;9.98;100.00;100220.79;106031;1254;61266;-81
2023/04/08 05:15:54;;;;;;;21.60;10.00;;;;;;;9.99;100.00;100222.01;106207;1254;61099;-83
2023/04/08 05:18:23;;;;;;;17.50;8.70;;;;;;;10.01;100.00;100218.84;106149;1257;74176;-77
2023/04/08 05:20:56;;;;;;;13.20;8.60;;;;;;;10.02;100.00;100225.67;106070;1256;66358;-82
2023/04/08 05:23:25;;;;;;;15.20;9.30;;;;;;;10.04;100.00;100220.18;105998;1252;73163;-80
2023/04/08 05:25:54;;;;;;;15.10;8.60;;;;;;;10.09;100.00;100222.61;106134;1253;62955;-83
2023/04/08 05:28:27;;;;;;;13.50;8.70;;;;;;;10.11;100.00;100221.33;106062;1257;60898;-82
2023/04/08 05:30:57;;;;;;;14.90;8.90;;;;;;;10.13;100.00;100220.35;106208;1251;74656;-82
2023/04/08 05:33:26;;;;;;;20.00;8.90;;;;;;;10.19;100.00;100225.83;106103;1253;69441;-79
2023/04/08 05:35:58;;;;;;;16.00;10.20;;;;;;;10.26;100.00;100222.50;106045;1254;72349;-79
2023/04/08 05:38:26;;;;;;;17.90;8.50;;;;;;;10.29;100.00;100220.96;106060;1254;62013;-79
2023/04/08 05:40:55;;;;;;;18.10;7.30;;;;;;;10.32;100.00;100217.48;106002;1254;62485;-77
2023/04/08 05:43:23;;;;;;;12.40;7.30;;;;;;;10.36;100.00;100222.20;105944;1257;74585;-77
2023/04/08 05:45:52;;;;;;;18.30;8.30;;;;;;;10.40;100.00;100222.39;106060;1253;70176;-78
2023/04/08 05:48:21;;;;;;;16.90;8.20;;;;;;;10.45;100.00;100222.33;105865;1256;73558;-78
2023/04/08 05:50:55;;;;;;;9.50;8.40;;;;;;;10.49;100.00;100216.04;105989;1254;63555;-77
2023/04/08 05:53:25;;;;;;;12.40;7.90;;;;;;;10.55;100.00;100216.19;106089;1256;61940;-81
2023/04/08 05:55:53;;;;;;;12.40;7.90;;;;;;;10.62;100.00;100219.02;106018;1253;75722;-85
2023/04/08 05:58:24;;;;;;;18.50;8.00;;;;;;;10.68;100.00;100220.06;106048;1254;69921;-81
2023/04/08 06:00:54;;;;;;;18.50;9.80;;;;;;;10.71;100.00;100223.39;106028;1254;73620;-78
2023/04/08 06:03:25;;;;;;;12.20;8.90;;;;;;;10.75;100.00;100225.83;106284;1251;62205;-82
2023/04/08 06:05:55;;;;;;;9.40;7.10;;;;;;;10.80;100.00;100227.34;106177;1253;61687;-79
2023/04/08 06:08:24;;;;;;;13.30;7.40;;;;;;;10.86;100.00;100229.27;106336;1251;75132;-80
2023/04/08 06:10:56;;;;;;;12.50;8.50;;;;;;;10.96;100.00;100226.69;106048;1251;67832;-84
2023/04/08 06:13:26;;;;;;;14.50;7.60;;;;;;;11.05;100.00;100231.96;106308;1254;74520;-82
2023/04/08 06:15:55;;;;;;;19.90;8.40;;;;;;;11.11;100.00;100230.95;106204;1251;60648;-79
2023/04/08 06:18:28;;;;;;;18.40;6.60;;;;;;;11.16;100.00;100229.23;106181;1251;60612;-79
2023/04/08 06:20:58;;;;;;;11.50;7.40;;;;;;;11.22;100.00;100232.84;106366;1255;73896;-79
2023/04/08 06:23:26;;;;;;;11.10;6.80;;;;;;;11.28;100.00;100231.25;106350;1256;67451;-80
2023/04/08 06:25:54;;;;;;;15.90;7.40;;;;;;;11.35;100.00;100235.34;106357;1251;74253;-81
2023/04/08 06:28:23;;;;;;;14.10;6.40;;;;;;;11.43;100.00;100233.55;106408;1257;61710;-79
2023/04/08 06:30:53;;;;;;;10.70;7.30;;;;;;;11.53;100.00;100237.66;106563;1251;60408;-81
2023/04/08 06:33:23;;;;;;;11.10;6.80;;;;;;;11.62;100.00;100242.29;106585;1255;75363;-79
2023/04/08 06:35:59;;;;;;;10.90;6.60;;;;;;;11.70;99.96;100241.09;106252;1251;68574;-79
2023/04/08 06:38:28;;;;;;;9.70;7.60;;;;;;;11.77;99.07;100242.20;106209;1253;72259;-82
2023/04/08 06:41:06;;;;;;;15.20;7.50;;;;;;;11.79;98.39;100243.44;106332;1251;63764;-81
2023/04/08 06:43:36;;;;;;;12.00;7.20;;;;;;;11.83;97.22;100249.10;106047;1257;62032;-79
2023/04/08 06:46:05;;;;;;;14.00;6.50;;;;;;;11.88;96.38;100253.92;105997;1253;74668;-78
2023/04/08 06:48:36;;;;;;;15.20;7.50;;;;;;;11.93;96.06;100255.30;106132;1253;68442;-81
2023/04/08 06:51:06;;;;;;;15.00;7.50;;;;;;;11.98;95.63;100257.27;106257;1251;74995;-79
2023/04/08 06:53:38;;;;;;;11.70;5.60;;;;;;;12.02;95.28;100258.85;106102;1257;62661;-79
2023/04/08 06:56:06;;;;;;;8.00;5.20;;;;;;;12.07;95.49;100257.63;106000;1253;61918;-78
2023/04/08 06:58:39;;;;;;;14.10;7.20;;;;;;;12.15;95.44;100261.74;106045;1254;75318;-78
2023/04/08 07:01:07;;;;;;;11.20;6.10;;;;;;;12.26;95.34;100256.90;106102;1257;67737;-77
2023/04/08 07:03:37;;;;;;;14.40;8.20;;;;;;;12.34;94.78;100258.80;105896;1255;74457;-78
2023/04/08 07:06:05;;;;;;;11.90;7.10;;;;;;;12.38;94.22;100262.95;105868;1256;60430;-80
2023/04/08 07:08:33;;;;;;;10.10;5.40;;;;;;;12.40;94.27;100264.82;105848;1254;61142;-81
2023/04/08 07:11:04;;;;;;;15.50;6.70;;;;;;;12.43;93.28;100264.91;105908;1257;74270;-83
2023/04/08 07:13:33;;;;;;;17.30;6.30;;;;;;;12.45;92.71;100265.55;105908;1253;69490;-77
2023/04/08 07:16:01;;;;;;;15.50;7.10;;;;;;;12.46;92.53;100268.30;105986;1254;72328;-80
2023/04/08 07:18:32;;;;;;;9.50;5.40;;;;;;;12.47;92.53;100274.54;106066;1252;60578;-81
2023/04/08 07:21:02;;;;;;;13.70;6.20;;;;;;;12.50;92.54;100271.13;105938;1259;60459;-79
2023/04/08 07:23:31;;;;;;;22.30;5.50;;;;;;;12.50;92.36;100275.75;106056;1257;75084;-80
2023/04/08 07:26:04;;;;;;;11.00;5.30;;;;;;;12.49;92.60;100277.52;106005;1252;69651;-79
2023/04/08 07:28:34;;;;;;;10.20;4.50;;;;;;;12.47;92.40;100278.20;106214;1257;73157;-80
2023/04/08 07:31:14;;;;;;;9.30;5.40;;;;;;;12.51;92.75;100276.58;106156;1254;63011;-81
2023/04/08 07:33:44;;;;;;;14.10;7.30;;;;;;;12.61;92.45;100279.58;105790;1259;60412;-77
2023/04/08 07:36:14;;;;;;;12.90;6.60;;;;;;;12.69;91.44;100279.91;105654;1260;75487;-77
2023/04/08 07:38:42;;;;;;;11.20;5.70;;;;;;;12.75;90.69;100281.88;105714;1255;69613;-79
2023/04/08 07:41:10;;;;;;;12.90;6.10;;;;;;;12.78;89.50;100282.04;105791;1255;73223;-76
2023/04/08 07:43:39;;;;;;;22.40;5.10;;;;;;;12.82;89.29;100282.63;105721;1257;61743;-77
2023/04/08 07:46:07;;;;;;;11.20;4.70;;;;;;;12.89;88.56;100279.09;105878;1257;61682;-77
2023/04/08 07:48:37;;;;;;;18.70;7.10;;;;;;;12.94;87.83;100281.07;105867;1259;75259;-78
2023/04/08 07:51:07;;;;;;;9.50;5.80;;;;;;;12.98;87.59;100282.02;106026;1254;67682;-77
2023/04/08 07:53:41;;;;;;;12.50;5.70;;;;;;;13.01;87.13;100280.33;105973;1254;74463;-77
2023/04/08 07:56:11;;;;;;;15.20;7.00;;;;;;;13.06;87.48;100277.16;105647;1254;61508;-72
2023/04/08 07:58:40;;;;;;;16.20;5.80;;;;;;;13.14;87.23;100274.52;105971;1254;60325;-74
2023/04/08 08:01:21;;;;;;;18.30;8.20;;;;;;;13.19;86.37;100275.39;105646;1258;73963;-76
2023/04/08 08:03:51;;;;;;;18.20;6.60;;;;;;;13.18;85.83;100275.66;105826;1257;69427;-75
2023/04/08 08:06:28;;;;;;;12.00;6.00;;;;;;;13.26;86.43;100277.25;105831;1258;73634;-80
2023/04/08 08:08:58;;;;;;;12.50;7.20;;;;;;;13.33;86.30;100277.61;105872;1256;60774;-77
2023/04/08 08:11:26;;;;;;;15.30;7.10;;;;;;;13.40;85.72;100271.37;105759;1257;60891;-76
2023/04/08 08:14:00;;;;;;;12.10;5.50;;;;;;;13.44;85.30;100271.67;105525;1254;73662;-73
2023/04/08 08:16:32;;;;;;;11.30;5.00;;;;;;;13.48;84.97;100274.85;105650;1254;68607;-81
2023/04/08 08:19:00;;;;;;;11.80;5.50;;;;;;;13.56;85.11;100275.64;105714;1257;73653;-72
2023/04/08 08:21:35;;;;;;;20.90;5.90;;;;;;;13.64;84.15;100272.04;105885;1255;60485;-75
2023/04/08 08:24:03;;;;;;;13.80;5.50;;;;;;;13.70;82.08;100267.52;105594;1255;60469;-76
2023/04/08 08:26:35;;;;;;;9.20;4.80;;;;;;;13.69;81.02;100270.83;105809;1259;74511;-74
2023/04/08 08:29:05;;;;;;;12.40;5.90;;;;;;;13.70;80.49;100274.96;105728;1259;68702;-75
2023/04/08 08:31:34;;;;;;;17.70;5.40;;;;;;;13.74;80.27;100274.73;105801;1257;71996;-76
2023/04/08 08:34:02;;;;;;;20.20;5.40;;;;;;;13.76;79.75;100270.96;105820;1254;61226;-74
2023/04/08 08:36:33;;;;;;;10.80;4.80;;;;;;;13.80;79.83;100267.44;105822;1254;61318;-73
2023/04/08 08:39:02;;;;;;;12.10;4.90;;;;;;;13.85;79.78;100267.26;105952;1259;75428;-74
2023/04/08 08:41:36;;;;;;;15.30;6.00;;;;;;;13.90;80.44;100269.96;105786;1257;69530;-75
2023/04/08 08:44:06;;;;;;;26.20;8.10;;;;;;;13.97;80.33;100269.38;105848;1254;71880;-77
2023/04/08 08:46:34;;;;;;;11.70;5.90;;;;;;;13.97;80.01;100265.04;105716;1257;61756;-75
2023/04/08 08:49:03;;;;;;;11.60;7.90;;;;;;;13.98;79.99;100257.37;105863;1254;62021;-74
2023/04/08 08:51:32;;;;;;;19.40;8.40;;;;;;;14.01;80.59;100258.63;105929;1254;73774;-75
2023/04/08 08:54:03;;;;;;;13.90;7.80;;;;;;;14.05;80.75;100260.45;105834;1257;67564;-75
2023/04/08 08:56:32;;;;;;;15.70;7.10;;;;;;;14.11;80.13;100260.23;105356;1257;73449;-72
2023/04/08 08:59:02;;;;;;;17.80;6.90;;;;;;;14.21;78.93;100262.64;105770;1257;62182;-72
2023/04/08 09:01:32;;;;;;;15.80;6.00;;;;;;;14.31;78.52;100262.43;105349;1258;61262;-74
2023/04/08 09:04:12;;;;;;;17.50;6.50;;;;;;;14.41;77.72;100261.61;105835;1259;73766;-76
2023/04/08 09:06:41;;;;;;;12.30;5.30;;;;;;;14.45;76.58;100264.71;105898;1257;68073;-77
2023/04/08 09:09:10;;;;;;;13.20;6.20;;;;;;;14.48;75.43;100267.56;105925;1259;73366;-76
2023/04/08 09:11:40;;;;;;;13.60;7.00;;;;;;;14.52;75.49;100266.34;105413;1255;62592;-78
2023/04/08 09:14:21;;;;;;;17.30;10.30;;;;;;;14.57;75.41;100263.51;105728;1258;60423;-76
2023/04/08 09:16:50;;;;;;;16.30;8.80;;;;;;;14.65;75.84;100262.29;105615;1260;75424;-78
2023/04/08 09:19:19;;;;;;;15.80;8.10;;;;;;;14.79;75.42;100258.90;105689;1257;69487;-80
2023/04/08 09:22:09;;;;;;;19.60;7.10;;;;;;;14.94;74.74;100261.63;105616;1256;73590;-77
2023/04/08 09:24:40;;;;;;;14.90;6.30;;;;;;;15.11;74.60;100264.73;105876;1257;60984;-75
2023/04/08 09:27:13;;;;;;;13.10;6.50;;;;;;;15.23;72.73;100266.13;105841;1258;61954;-76
2023/04/08 09:29:42;;;;;;;13.00;6.70;;;;;;;15.31;73.03;100266.96;105829;1259;75525;-77
2023/04/08 09:32:10;;;;;;;12.40;7.50;;;;;;;15.36;73.32;100270.06;105681;1259;66846;-74
2023/04/08 09:34:41;;;;;;;15.20;8.10;;;;;;;15.37;73.69;100269.14;106266;1256;72086;-77
2023/04/08 09:37:10;;;;;;;10.50;6.70;;;;;;;15.41;74.11;100268.79;106005;1257;60464;-74
2023/04/08 09:39:45;;;;;;;10.40;6.50;;;;;;;15.46;74.09;100267.12;105883;1254;60552;-75
2023/04/08 09:42:14;;;;;;;12.50;5.50;;;;;;;15.54;73.32;100266.17;105818;1257;75055;-75
2023/04/08 09:44:42;;;;;;;14.90;6.70;;;;;;;15.61;72.16;100267.81;105971;1259;69340;-77
2023/04/08 09:47:18;;;;;;;12.10;6.60;;;;;;;15.71;72.26;100267.30;106149;1259;74190;-76
2023/04/08 09:49:50;;;;;;;11.20;7.00;;;;;;;15.85;71.21;100270.45;105871;1257;61962;-77
2023/04/08 09:52:43;;;;;;;13.30;6.30;;;;;;;15.95;69.36;100266.71;106004;1259;60821;-76
2023/04/08 09:55:12;;;;;;;9.40;6.60;;;;;;;16.09;68.45;100265.95;106000;1260;74654;-78
2023/04/08 09:57:44;;;;;;;19.00;6.40;;;;;;;16.15;67.55;100274.85;105995;1254;68542;-76
2023/04/08 10:00:16;;;;;;;10.20;6.30;;;;;;;16.18;68.05;100274.80;106374;1254;72180;-77
2023/04/08 10:03:23;;;;;;;10.90;5.50;;;;;;;16.25;67.77;100276.15;106103;1254;61379;-76
2023/04/08 10:06:00;;;;;;;10.40;4.40;;;;;;;16.36;66.18;100274.99;105992;1254;60840;-77
2023/04/08 10:08:30;;;;;;;13.50;5.90;;;;;;;16.38;65.97;100279.18;105910;1259;74685;-75
2023/04/08 10:11:00;;;;;;;13.50;6.00;;;;;;;16.37;65.73;100277.45;105976;1259;67619;-76
2023/04/08 10:13:34;;;;;;;17.90;5.80;;;;;;;16.32;64.20;100279.13;105775;1259;72731;-78
2023/04/08 10:16:24;;;;;;;17.10;5.70;;;;;;;16.30;63.57;100282.02;106007;1258;60425;-77
2023/04/08 10:18:56;;;;;;;9.90;5.70;;;;;;;16.27;63.22;100274.73;106010;1254;60418;-75
2023/04/08 10:21:36;;;;;;;15.30;5.90;;;;;;;16.26;63.26;100277.12;105936;1259;75340;-79
2023/04/08 10:24:09;;;;;;;6.70;5.10;;;;;;;16.28;62.94;100273.91;105889;1254;68642;-77
2023/04/08 10:26:44;;;;;;;19.00;5.10;;;;;;;16.32;61.47;100283.25;105779;1257;73485;-81
2023/04/08 10:29:18;;;;;;;13.20;5.30;;;;;;;16.35;61.11;100280.77;105554;1257;60487;-79
2023/04/08 10:31:47;;;;;;;14.50;5.20;;;;;;;16.37;58.81;100282.11;105655;1255;61469;-78
2023/04/08 10:34:23;;;;;;;7.40;5.30;;;;;;;16.40;59.04;100282.77;105620;1259;75684;-80
2023/04/08 10:36:54;;;;;;;8.20;4.80;;;;;;;16.46;59.71;100279.60;105710;1257;69009;-80
2023/04/08 10:39:26;;;;;;;13.60;5.90;;;;;;;16.47;60.07;100283.25;105660;1254;73267;-76
2023/04/08 10:41:55;;;;;;;9.40;4.80;;;;;;;16.46;60.66;100282.91;105901;1259;60456;-80
2023/04/08 10:44:25;;;;;;;11.80;4.70;;;;;;;16.50;61.42;100283.73;105996;1257;60887;-80
2023/04/08 10:46:55;;;;;;;15.00;5.20;;;;;;;16.51;61.29;100285.30;105873;1259;74344;-77
2023/04/08 10:49:32;;;;;;;7.90;5.40;;;;;;;16.46;62.04;100282.48;105716;1259;68456;-77
2023/04/08 10:52:07;;;;;;;13.80;8.90;;;;;;;16.47;62.28;100279.82;105872;1254;72637;-78
2023/04/08 10:54:37;;;;;;;10.00;5.80;;;;;;;16.52;62.57;100275.95;105958;1254;62248;-78
2023/04/08 10:57:05;;;;;;;10.50;5.40;;;;;;;16.53;62.38;100275.24;105834;1253;60374;-77
2023/04/08 10:59:35;;;;;;;8.80;6.30;;;;;;;16.54;62.54;100272.27;105803;1259;75562;-78
2023/04/08 11:02:12;;;;;;;9.50;5.10;;;;;;;16.61;62.42;100275.98;105883;1254;69150;-77
2023/04/08 11:04:43;;;;;;;16.20;5.30;;;;;;;16.72;62.25;100269.42;106044;1254;73675;-81
2023/04/08 11:07:14;;;;;;;11.50;5.40;;;;;;;16.82;61.81;100266.23;105893;1254;61228;-77
2023/04/08 11:09:45;;;;;;;15.60;5.40;;;;;;;16.90;61.51;100259.73;105881;1257;60527;-80
2023/04/08 11:12:21;;;;;;;11.00;5.90;;;;;;;16.99;61.33;100259.86;105911;1260;75401;-75
2023/04/08 11:14:53;;;;;;;12.20;5.60;;;;;;;17.09;60.50;100257.77;105579;1262;67825;-79
2023/04/08 11:17:21;;;;;;;15.50;6.10;;;;;;;17.16;59.80;100254.42;105817;1256;73400;-80
2023/04/08 11:19:56;;;;;;;;;;;;;;;17.21;59.18;100251.08;105701;1257;61351;-74
2023/04/08 11:22:27;;;;;;;12.80;5.00;;;;;;;17.25;58.79;100247.13;105716;1259;61635;-77
2023/04/08 11:24:56;;;;;;;20.90;5.60;;;;;;;17.33;57.87;100245.95;105793;1259;75119;-84
2023/04/08 11:27:25;;;;;;;13.40;5.20;;;;;;;17.33;56.17;100243.98;105912;1259;67763;-88
2023/04/08 11:29:56;;;;;;;9.50;4.70;;;;;;;17.33;54.38;100246.27;105927;1259;73962;-82
2023/04/08 11:32:24;;;;;;;12.60;4.20;;;;;;;17.34;52.40;100245.40;105610;1257;61418;-84
2023/04/08 11:34:53;;;;;;;13.40;5.80;;;;;;;17.40;51.80;100243.23;105836;1258;61848;-83